| time (UTC) | temp F | wind direction | speed MPH | gust MPH | rain 1hr in | rain 24hr in | rain mn in | humidity % | barometer mb |
| 20260902100035 | 51 | 244 | 3.0 | 10.0 | 0.00 | 0.13 | 0.11 | 87 | 1005.7 |
| 20260902094535 | 51 | 252 | 0.0 | 9.0 | 0.00 | 0.13 | 0.11 | 87 | 1005.9 |
| 20260902093037 | 50 | 278 | 1.0 | 5.0 | 0.00 | 0.13 | 0.11 | 88 | 1006.0 |
| 20260902091534 | 51 | 299 | 8.0 | 15.0 | 0.00 | 0.13 | 0.11 | 87 | 1005.9 |
| 20260902090029 | 52 | 293 | 11.0 | 15.0 | 0.00 | 0.13 | 0.11 | 85 | 1005.7 |
| 20260902084528 | 52 | 268 | 8.0 | 13.0 | 0.00 | 0.13 | 0.11 | 85 | 1005.7 |
| 20260902083027 | 52 | 290 | 12.0 | 19.0 | 0.00 | 0.13 | 0.11 | 86 | 1005.6 |
| 20260902081525 | 52 | 273 | 11.0 | 17.0 | 0.00 | 0.13 | 0.11 | 85 | 1005.7 |
| 20260902080024 | 52 | 283 | 11.0 | 25.0 | 0.03 | 0.13 | 0.11 | 85 | 1006.2 |
| 20260902074522 | 52 | 288 | 15.0 | 20.0 | 0.06 | 0.13 | 0.11 | 88 | 1006.6 |
| 20260902073020 | 53 | 302 | 7.0 | 18.0 | 0.09 | 0.13 | 0.11 | 86 | 1007.6 |
| 20260902071519 | 52 | 274 | 6.0 | 10.0 | 0.09 | 0.13 | 0.11 | 89 | 1008.4 |
| 20260902070017 | 53 | 280 | 12.0 | 16.0 | 0.08 | 0.10 | 0.08 | 89 | 1008.1 |
| 20260902064516 | 53 | 287 | 9.0 | 15.0 | 0.06 | 0.07 | 0.05 | 88 | 1008.1 |
| 20260902063013 | 53 | 290 | 14.0 | 21.0 | 0.03 | 0.04 | 0.02 | 86 | 1007.9 |
| 20260902061518 | 54 | 285 | 23.0 | 29.0 | 0.03 | 0.04 | 0.02 | 84 | 1006.4 |
| 20260902060005 | 57 | 292 | 16.0 | 28.0 | 0.01 | 0.02 | 0.00 | 72 | 1007.5 |
| 20260902054502 | 59 | 235 | 18.0 | 30.0 | 0.00 | 0.01 | 0.01 | 63 | 1007.1 |
| 20260902053005 | 59 | 262 | 17.0 | 24.0 | 0.00 | 0.01 | 0.01 | 63 | 1005.8 |
| 20260902051501 | 60 | 259 | 16.0 | 25.0 | 0.00 | 0.01 | 0.01 | 60 | 1005.6 |
| 20260902050008 | 59 | 281 | 11.0 | 19.0 | 0.00 | 0.01 | 0.01 | 61 | 1005.8 |
| 20260902044503 | 60 | 281 | 12.0 | 20.0 | 0.00 | 0.01 | 0.01 | 61 | 1005.7 |
| 20260902043100 | 60 | 273 | 15.0 | 23.0 | 0.00 | 0.01 | 0.01 | 62 | 1005.4 |
| 20260902041600 | 61 | 277 | 16.0 | 22.0 | 0.00 | 0.01 | 0.01 | 58 | 1005.4 |
| 20260902040059 | 61 | 269 | 18.0 | 24.0 | 0.01 | 0.01 | 0.01 | 59 | 1005.3 |
| 20260902034603 | 61 | 296 | 13.0 | 23.0 | 0.01 | 0.01 | 0.01 | 59 | 1004.8 |
| 20260902033107 | 62 | 277 | 18.0 | 24.0 | 0.01 | 0.01 | 0.01 | 57 | 1005.0 |
| 20260902031558 | 61 | 262 | 13.0 | 33.0 | 0.01 | 0.01 | 0.01 | 63 | 1005.4 |
| 20260902030056 | 60 | 285 | 8.0 | 13.0 | 0.00 | 0.00 | 0.00 | 64 | 1004.6 |
| 20260902024606 | 61 | 174 | 11.0 | 16.0 | 0.00 | 0.00 | 0.00 | 61 | 1004.3 |
| 20260902023054 | 61 | 176 | 12.0 | 19.0 | 0.00 | 0.00 | 0.00 | 63 | 1003.9 |
| 20260902021608 | 61 | 171 | 13.0 | 17.0 | 0.00 | 0.00 | 0.00 | 61 | 1003.8 |
| 20260902020054 | 62 | 177 | 10.0 | 15.0 | 0.00 | 0.00 | 0.00 | 58 | 1003.7 |
| 20260902014551 | 62 | 164 | 9.0 | 16.0 | 0.00 | 0.00 | 0.00 | 57 | 1003.7 |
| 20260902013050 | 64 | 177 | 9.0 | 12.0 | 0.00 | 0.00 | 0.00 | 53 | 1003.7 |
| 20260902011548 | 65 | 174 | 8.0 | 15.0 | 0.00 | 0.00 | 0.00 | 51 | 1003.9 |
| 20260902010053 | 65 | 190 | 9.0 | 15.0 | 0.00 | 0.00 | 0.00 | 49 | 1003.9 |
| 20260902004547 | 65 | 221 | 12.0 | 17.0 | 0.00 | 0.00 | 0.00 | 48 | 1003.9 |
| 20260902003045 | 66 | 272 | 11.0 | 15.0 | 0.00 | 0.00 | 0.00 | 48 | 1003.9 |
| 20260902001544 | 67 | 281 | 12.0 | 15.0 | 0.00 | 0.00 | 0.00 | 45 | 1004.0 |
| 20260902000043 | 67 | 283 | 13.0 | 22.0 | 0.00 | 0.00 | 0.00 | 44 | 1004.3 |
| 20260901234551 | 68 | 175 | 15.0 | 20.0 | 0.00 | 0.00 | 0.00 | 44 | 1004.4 |
| 20260901233044 | 70 | 293 | 15.0 | 20.0 | 0.00 | 0.00 | 0.00 | 38 | 1004.3 |
| 20260901231541 | 72 | 252 | 6.0 | 14.0 | 0.00 | 0.00 | 0.00 | 35 | 1004.4 |
| 20260901230040 | 72 | 146 | 3.0 | 12.0 | 0.00 | 0.00 | 0.00 | 39 | 1004.4 |
| 20260901224546 | 71 | 136 | 8.0 | 16.0 | 0.00 | 0.00 | 0.00 | 39 | 1004.3 |
| 20260901223038 | 71 | 98 | 7.0 | 17.0 | 0.00 | 0.00 | 0.00 | 38 | 1004.4 |
| 20260901221541 | 73 | 129 | 7.0 | 17.0 | 0.00 | 0.00 | 0.00 | 35 | 1004.5 |
| 20260901220035 | 75 | 146 | 9.0 | 17.0 | 0.00 | 0.00 | 0.00 | 33 | 1004.7 |
| 20260901214544 | 76 | 129 | 12.0 | 19.0 | 0.00 | 0.00 | 0.00 | 32 | 1004.7 |
| 20260901213033 | 76 | 137 | 12.0 | 20.0 | 0.00 | 0.00 | 0.00 | 33 | 1005.0 |
| 20260901211534 | 76 | 127 | 5.0 | 19.0 | 0.00 | 0.00 | 0.00 | 27 | 1005.2 |
| 20260901210030 | 77 | 143 | 10.0 | 18.0 | 0.00 | 0.00 | 0.00 | 28 | 1005.4 |
| 20260901204524 | 76 | 138 | 8.0 | 18.0 | 0.00 | 0.00 | 0.00 | 30 | 1005.6 |
| 20260901203023 | 75 | 135 | 8.0 | 20.0 | 0.00 | 0.00 | 0.00 | 32 | 1005.7 |
| 20260901201519 | 74 | 131 | 4.0 | 19.0 | 0.00 | 0.00 | 0.00 | 34 | 1006.1 |
| 20260901200015 | 74 | 174 | 6.0 | 17.0 | 0.00 | 0.00 | 0.00 | 33 | 1006.3 |
| 20260901194515 | 73 | 111 | 6.0 | 18.0 | 0.00 | 0.00 | 0.00 | 38 | 1006.7 |
| 20260901193010 | 73 | 106 | 10.0 | 19.0 | 0.00 | 0.00 | 0.00 | 40 | 1006.9 |
| 20260901191507 | 72 | 115 | 10.0 | 16.0 | 0.00 | 0.00 | 0.00 | 40 | 1007.2 |
| 20260901190006 | 71 | 119 | 12.0 | 19.0 | 0.00 | 0.00 | 0.00 | 41 | 1007.5 |
| 20260901184601 | 70 | 123 | 12.0 | 22.0 | 0.00 | 0.00 | 0.00 | 41 | 1007.8 |
| 20260901183100 | 70 | 124 | 11.0 | 20.0 | 0.00 | 0.00 | 0.00 | 42 | 1008.0 |
| 20260901181600 | 69 | 149 | 10.0 | 17.0 | 0.00 | 0.00 | 0.00 | 42 | 1008.1 |
| 20260901180054 | 67 | 115 | 9.0 | 18.0 | 0.00 | 0.00 | 0.00 | 43 | 1008.2 |
| 20260901174552 | 69 | 127 | 7.0 | 20.0 | 0.00 | 0.00 | 0.00 | 42 | 1008.2 |
| 20260901173058 | 67 | 123 | 9.0 | 15.0 | 0.00 | 0.00 | 0.00 | 43 | 1008.5 |
| 20260901171558 | 66 | 152 | 6.0 | 15.0 | 0.00 | 0.00 | 0.00 | 44 | 1008.7 |
| 20260901170044 | 63 | 77 | 5.0 | 14.0 | 0.00 | 0.00 | 0.00 | 47 | 1008.9 |
| 20260901164551 | 64 | 107 | 2.0 | 10.0 | 0.00 | 0.00 | 0.00 | 45 | 1008.9 |
| 20260901163041 | 64 | 129 | 3.0 | 5.0 | 0.00 | 0.00 | 0.00 | 43 | 1008.9 |
| 20260901161544 | 64 | 166 | 2.0 | 6.0 | 0.00 | 0.00 | 0.00 | 43 | 1009.0 |
| 20260901160036 | 63 | 187 | 3.0 | 5.0 | 0.00 | 0.00 | 0.00 | 43 | 1009.1 |
| 20260901154532 | 59 | 206 | 0.0 | 3.0 | 0.00 | 0.00 | 0.00 | 49 | 1009.2 |
| 20260901153032 | 59 | 127 | 2.0 | 10.0 | 0.00 | 0.00 | 0.00 | 50 | 1009.2 |
| 20260901151536 | 58 | 269 | 7.0 | 10.0 | 0.00 | 0.00 | 0.00 | 45 | 1009.2 |
| 20260901150029 | 55 | 290 | 10.0 | 14.0 | 0.00 | 0.00 | 0.00 | 48 | 1009.3 |
| 20260901144523 | 54 | 303 | 10.0 | 15.0 | 0.00 | 0.00 | 0.00 | 48 | 1009.1 |
| 20260901143027 | 55 | 281 | 4.0 | 11.0 | 0.00 | 0.00 | 0.00 | 49 | 1009.1 |
| 20260901141521 | 54 | 274 | 11.0 | 15.0 | 0.00 | 0.00 | 0.00 | 49 | 1009.1 |
| 20260901140020 | 53 | 287 | 12.0 | 18.0 | 0.00 | 0.00 | 0.00 | 50 | 1009.2 |
| 20260901134531 | 51 | 345 | 13.0 | 16.0 | 0.00 | 0.00 | 0.00 | 53 | 1009.2 |
| 20260901133024 | 50 | 286 | 12.0 | 17.0 | 0.00 | 0.00 | 0.00 | 54 | 1009.1 |
| 20260901131518 | 50 | 293 | 9.0 | 15.0 | 0.00 | 0.00 | 0.00 | 54 | 1009.1 |
| 20260901130018 | 50 | 295 | 12.0 | 17.0 | 0.00 | 0.00 | 0.00 | 55 | 1009.0 |
| 20260901124517 | 49 | 291 | 12.0 | 17.0 | 0.00 | 0.00 | 0.00 | 55 | 1009.1 |
| 20260901123024 | 50 | 305 | 8.0 | 11.0 | 0.00 | 0.00 | 0.00 | 54 | 1009.0 |
| 20260901121513 | 50 | 285 | 6.0 | 10.0 | 0.00 | 0.00 | 0.00 | 55 | 1009.1 |
| 20260901120013 | 50 | 298 | 0.0 | 6.0 | 0.00 | 0.00 | 0.00 | 55 | 1009.1 |
| 20260901114513 | 50 | 265 | 0.0 | 8.0 | 0.00 | 0.00 | 0.00 | 55 | 1009.1 |
| 20260901113009 | 50 | 306 | 11.0 | 19.0 | 0.00 | 0.00 | 0.00 | 53 | 1009.1 |
| 20260901111508 | 51 | 289 | 14.0 | 18.0 | 0.00 | 0.00 | 0.00 | 52 | 1009.1 |
| 20260901110006 | 51 | 277 | 12.0 | 15.0 | 0.00 | 0.00 | 0.00 | 53 | 1009.2 |
| 20260901104506 | 51 | 289 | 13.0 | 17.0 | 0.00 | 0.00 | 0.00 | 52 | 1009.1 |
| 20260901103002 | 51 | 294 | 12.0 | 16.0 | 0.00 | 0.00 | 0.00 | 52 | 1009.2 |
| 20260901101601 | 51 | 295 | 13.0 | 17.0 | 0.00 | 0.00 | 0.00 | 52 | 1009.4 |